Neves, Brazil
Current Conditions -  °F | °C
As of 3:00 PM on Wednesday 26 Nov 2014 (Local Time) from SBRJ Reporting Station
Broken Clouds Broken Clouds  
Wind Chill: 90°   Ceiling: 10000
Heat Index: 98°   Visibility: 6mi
Dew Point: 73°   Wind: 5mph
Humidity: 59%   Direction: 10°N
Pressure: 29.68"   Gusts: NA
Location:  22.86°S, 43.09°W
Report Text: SBRJ 261700Z 01004KT 9999 FEW030 BKN100 32/23 Q1005
Loading
Personal Weather Stations






























Interactive Weather Map New forecast layout! Learn more

10-Day Weather Forecast

Advertisements
Track Severe Weather on mobile